Time;durP1;ratioP1;P1;durP2;ratioP2;P2;SDS_P1;SDS_P2;PMS_P1;PMS_P2;Temp;Humidity;BMP_temperature;BMP_pressure;BME280_temperature;BME280_humidity;BME280_pressure;Samples;Min_cycle;Max_cycle;Signal;HPM_P1;HPM_P2
2021/10/05 00:02:46;;;;;;;7.00;4.80;;;12.00;99.90;;;;;;12515025;28;20052;-36
2021/10/05 00:08:48;;;;;;;4.95;3.90;;;12.00;99.90;;;;;;12516333;28;20045;-40
2021/10/05 00:14:50;;;;;;;5.88;4.13;;;12.00;99.90;;;;;;12511772;28;20062;-39
2021/10/05 00:20:52;;;;;;;5.65;4.30;;;12.00;99.90;;;;;;12515326;28;20804;-40
2021/10/05 00:26:54;;;;;;;5.93;4.28;;;12.00;99.90;;;;;;12508821;28;20041;-42
2021/10/05 00:32:56;;;;;;;6.22;4.80;;;12.00;99.90;;;;;;12513066;28;20106;-41
2021/10/05 00:38:58;;;;;;;5.45;4.40;;;12.00;99.90;;;;;;12509522;28;20111;-40
2021/10/05 00:45:00;;;;;;;6.07;4.38;;;12.00;99.90;;;;;;12512768;28;20553;-36
2021/10/05 00:51:02;;;;;;;6.07;4.40;;;12.00;99.90;;;;;;12513310;28;20114;-36
2021/10/05 00:57:05;;;;;;;6.47;4.88;;;12.00;99.90;;;;;;12515680;28;20060;-40
2021/10/05 01:03:07;;;;;;;9.65;4.88;;;12.00;99.90;;;;;;12511089;28;20430;-39
2021/10/05 01:09:09;;;;;;;7.68;5.70;;;12.00;99.90;;;;;;12514127;28;20053;-37
2021/10/05 01:15:10;;;;;;;7.50;5.68;;;12.00;99.90;;;;;;12511531;28;20123;-40
2021/10/05 01:21:13;;;;;;;8.93;6.30;;;12.00;99.90;;;;;;12511065;28;20041;-36
2021/10/05 01:27:16;;;;;;;8.35;6.45;;;12.00;99.90;;;;;;12512087;28;20098;-36
2021/10/05 01:33:21;;;;;;;10.68;7.30;;;11.90;99.90;;;;;;12509231;28;20087;-36
2021/10/05 01:39:40;;;;;;;8.93;7.10;;;11.90;99.90;;;;;;12511290;28;20125;-39
2021/10/05 01:45:42;;;;;;;10.38;7.20;;;11.90;99.90;;;;;;12511540;28;20099;-40
2021/10/05 01:51:45;;;;;;;5.82;4.80;;;12.00;99.90;;;;;;12509568;28;20107;-35
2021/10/05 01:57:47;;;;;;;4.97;3.88;;;12.20;99.90;;;;;;12507858;28;20776;-39
2021/10/05 02:03:49;;;;;;;5.90;4.13;;;12.20;99.90;;;;;;12515069;28;20953;-41
2021/10/05 02:09:51;;;;;;;5.03;3.97;;;12.00;99.90;;;;;;12509325;28;20050;-40
2021/10/05 02:15:53;;;;;;;6.75;4.10;;;12.00;99.90;;;;;;12510105;28;20061;-36
2021/10/05 02:21:54;;;;;;;5.25;4.38;;;11.90;99.90;;;;;;12507741;28;20110;-36
2021/10/05 02:27:56;;;;;;;8.13;5.55;;;11.80;99.90;;;;;;12510122;28;20049;-40
2021/10/05 02:33:58;;;;;;;6.65;5.57;;;11.80;99.90;;;;;;12508046;28;20067;-41
2021/10/05 02:40:02;;;;;;;8.13;5.50;;;11.80;99.90;;;;;;12507798;28;20053;-39
2021/10/05 02:46:04;;;;;;;5.60;4.70;;;11.70;99.90;;;;;;12507871;28;20049;-36
2021/10/05 02:52:06;;;;;;;6.47;4.32;;;11.60;99.90;;;;;;12507975;28;20395;-36
2021/10/05 02:58:08;;;;;;;6.88;5.22;;;11.40;99.90;;;;;;12508931;28;20057;-35
2021/10/05 03:04:10;;;;;;;6.85;5.45;;;11.40;99.90;;;;;;12507752;28;20514;-36
2021/10/05 03:10:12;;;;;;;6.80;5.95;;;11.10;99.90;;;;;;12518703;28;20057;-43
2021/10/05 03:16:14;;;;;;;7.38;5.68;;;11.00;99.90;;;;;;12521530;28;20198;-45
2021/10/05 03:22:16;;;;;;;7.20;5.65;;;11.20;99.90;;;;;;12517860;28;20052;-35
2021/10/05 03:28:18;;;;;;;9.48;6.38;;;11.40;99.90;;;;;;12517875;28;20045;-41
2021/10/05 03:34:22;;;;;;;10.03;7.10;;;11.40;99.90;;;;;;12516128;28;20767;-41
2021/10/05 03:40:24;;;;;;;9.13;7.35;;;11.40;99.90;;;;;;12517329;28;20104;-36
2021/10/05 03:46:26;;;;;;;10.00;6.53;;;11.40;99.90;;;;;;12517074;28;20057;-37
2021/10/05 03:52:28;;;;;;;8.75;6.30;;;11.30;99.90;;;;;;12516058;28;20045;-40
2021/10/05 03:58:30;;;;;;;6.80;5.13;;;11.50;99.90;;;;;;12516650;28;20082;-36
2021/10/05 04:04:32;;;;;;;8.35;5.93;;;11.20;99.90;;;;;;12516155;28;20080;-41
2021/10/05 04:10:34;;;;;;;7.65;5.88;;;11.30;99.90;;;;;;12515691;28;20063;-36
2021/10/05 04:16:35;;;;;;;7.90;5.53;;;11.50;99.90;;;;;;12514876;28;20045;-40
2021/10/05 04:22:38;;;;;;;10.45;6.55;;;11.40;99.90;;;;;;12516571;28;20070;-35
2021/10/05 04:28:39;;;;;;;8.68;5.85;;;11.30;99.90;;;;;;12517055;28;20057;-36
2021/10/05 04:34:43;;;;;;;8.77;7.20;;;11.20;99.90;;;;;;12515635;28;20099;-38
2021/10/05 04:40:45;;;;;;;8.65;7.07;;;11.10;99.90;;;;;;12513765;28;20122;-36
2021/10/05 04:46:46;;;;;;;9.52;7.93;;;11.20;99.90;;;;;;12513833;28;20053;-35
2021/10/05 04:52:48;;;;;;;12.90;9.13;;;11.30;99.90;;;;;;12512587;28;20048;-39
2021/10/05 04:58:50;;;;;;;13.57;9.90;;;11.40;99.90;;;;;;12515001;28;20058;-39
2021/10/05 05:04:52;;;;;;;11.85;9.02;;;11.40;99.90;;;;;;12514941;28;20060;-42
2021/10/05 05:10:54;;;;;;;13.43;9.40;;;11.40;99.90;;;;;;12511255;28;20053;-42
2021/10/05 05:16:56;;;;;;;13.60;10.48;;;11.40;99.90;;;;;;12513787;28;20057;-40
2021/10/05 05:22:58;;;;;;;12.10;9.75;;;11.40;99.90;;;;;;12512512;28;20050;-35
2021/10/05 05:29:00;;;;;;;14.90;11.20;;;11.40;99.90;;;;;;12514382;28;20055;-41
2021/10/05 05:35:02;;;;;;;14.45;12.02;;;11.40;99.90;;;;;;12514452;28;20101;-35
2021/10/05 05:41:04;;;;;;;19.58;12.98;;;11.40;99.90;;;;;;12509149;28;20052;-40
2021/10/05 05:47:06;;;;;;;15.07;11.77;;;11.40;99.90;;;;;;12512569;28;20462;-36
2021/10/05 05:53:08;;;;;;;14.60;11.38;;;11.40;99.90;;;;;;12513964;28;20049;-37
2021/10/05 05:59:10;;;;;;;13.63;10.63;;;11.50;99.90;;;;;;12511296;28;20052;-40
2021/10/05 06:05:12;;;;;;;13.25;11.00;;;11.50;99.90;;;;;;12509155;28;20159;-40
2021/10/05 06:11:14;;;;;;;12.38;9.45;;;11.60;99.90;;;;;;12511402;28;20441;-36
2021/10/05 06:17:16;;;;;;;11.35;9.25;;;11.60;99.90;;;;;;12513996;28;20079;-36
2021/10/05 06:23:18;;;;;;;11.98;8.90;;;11.60;99.90;;;;;;12512715;28;20079;-37
2021/10/05 06:29:20;;;;;;;11.98;8.07;;;11.60;99.90;;;;;;12509436;28;20048;-43
2021/10/05 06:35:25;;;;;;;10.90;7.93;;;11.70;99.90;;;;;;12510970;28;20102;-38
2021/10/05 06:41:27;;;;;;;8.70;7.25;;;11.70;99.90;;;;;;12512875;28;20754;-41
2021/10/05 06:47:29;;;;;;;8.88;7.55;;;11.70;99.90;;;;;;12521855;28;20049;-36
2021/10/05 06:53:31;;;;;;;8.88;7.13;;;11.90;99.90;;;;;;12515882;28;20041;-36
2021/10/05 06:59:33;;;;;;;8.75;6.82;;;11.80;99.90;;;;;;12519292;28;20155;-39
2021/10/05 07:05:35;;;;;;;7.78;5.70;;;11.90;99.90;;;;;;12522521;28;20103;-36
2021/10/05 07:11:37;;;;;;;5.35;4.60;;;12.00;99.90;;;;;;12521393;28;20087;-40
2021/10/05 07:17:39;;;;;;;7.70;4.78;;;12.10;99.90;;;;;;12517690;28;20214;-40
2021/10/05 07:23:41;;;;;;;7.85;3.85;;;12.10;99.90;;;;;;12518218;28;20111;-37
2021/10/05 07:29:49;;;;;;;4.85;4.10;;;12.20;99.90;;;;;;12519053;28;20533;-41
2021/10/05 07:35:51;;;;;;;5.93;3.70;;;12.20;99.90;;;;;;12517647;28;20041;-35
2021/10/05 07:41:53;;;;;;;5.90;3.95;;;12.20;99.90;;;;;;12516769;28;20041;-36
2021/10/05 07:47:55;;;;;;;5.30;3.45;;;12.20;99.90;;;;;;12519119;28;20049;-42
2021/10/05 07:53:57;;;;;;;3.47;2.80;;;12.20;99.90;;;;;;12517205;28;20072;-36
2021/10/05 07:59:59;;;;;;;3.78;2.70;;;12.20;99.90;;;;;;12516829;28;20056;-40
2021/10/05 08:06:01;;;;;;;3.30;2.47;;;12.30;99.90;;;;;;12517498;28;20107;-46
2021/10/05 08:12:03;;;;;;;3.50;2.22;;;12.30;99.90;;;;;;12516238;28;20094;-36
2021/10/05 08:18:05;;;;;;;3.25;2.28;;;12.40;99.90;;;;;;12519333;28;20114;-40
2021/10/05 08:24:08;;;;;;;2.67;2.08;;;12.50;99.90;;;;;;12514889;28;20082;-35
2021/10/05 08:30:10;;;;;;;4.20;2.30;;;12.50;99.90;;;;;;12516087;28;20052;-36
2021/10/05 08:36:12;;;;;;;5.00;2.58;;;12.60;99.90;;;;;;12513258;28;20544;-36
2021/10/05 08:42:14;;;;;;;4.20;2.58;;;12.50;99.90;;;;;;12516899;28;20045;-36
2021/10/05 08:48:16;;;;;;;3.17;2.25;;;12.50;99.90;;;;;;12514635;28;20049;-45
2021/10/05 08:54:18;;;;;;;3.38;2.28;;;12.60;99.90;;;;;;12513597;28;20049;-35
2021/10/05 09:00:22;;;;;;;2.80;2.00;;;12.60;99.90;;;;;;12514897;28;20502;-39
2021/10/05 09:06:24;;;;;;;3.92;2.15;;;12.60;99.90;;;;;;12513651;28;20060;-40
2021/10/05 09:12:28;;;;;;;3.88;2.00;;;12.60;99.90;;;;;;12514261;28;20445;-36
2021/10/05 09:18:30;;;;;;;3.20;2.08;;;12.80;99.90;;;;;;12514950;28;20053;-35
2021/10/05 09:24:32;;;;;;;3.05;2.45;;;13.10;99.90;;;;;;12514047;28;20106;-40
2021/10/05 09:30:37;;;;;;;2.38;1.70;;;13.30;99.90;;;;;;12511206;28;20050;-36
2021/10/05 09:36:38;;;;;;;3.20;1.60;;;13.20;99.90;;;;;;12511612;28;20049;-36
2021/10/05 09:42:46;;;;;;;3.13;1.70;;;13.40;99.90;;;;;;12511820;28;20048;-40
2021/10/05 09:48:58;;;;;;;2.20;1.05;;;13.60;99.90;;;;;;12516140;28;20785;-39
2021/10/05 09:55:00;;;;;;;2.47;1.30;;;13.80;99.90;;;;;;12511086;28;20482;-36
2021/10/05 10:01:02;;;;;;;2.20;1.38;;;14.00;99.90;;;;;;12511135;28;20131;-36
2021/10/05 10:07:06;;;;;;;3.05;1.30;;;14.10;99.90;;;;;;12514081;28;20168;-41
2021/10/05 10:13:11;;;;;;;1.83;1.10;;;14.00;99.90;;;;;;12508229;28;20724;-36
2021/10/05 10:19:12;;;;;;;1.70;1.10;;;14.00;99.90;;;;;;12521637;28;20157;-36
2021/10/05 10:25:26;;;;;;;2.42;1.40;;;13.70;99.90;;;;;;12519484;28;20045;-35
2021/10/05 10:31:32;;;;;;;2.60;1.40;;;13.80;99.90;;;;;;12521854;28;20049;-40
2021/10/05 10:37:45;;;;;;;1.63;1.00;;;13.80;99.90;;;;;;12523357;28;20238;-36
2021/10/05 10:44:06;;;;;;;5.07;1.10;;;13.90;99.90;;;;;;12521096;28;20045;-41
2021/10/05 10:50:10;;;;;;;1.88;1.10;;;13.90;99.90;;;;;;12519594;28;20051;-40
2021/10/05 10:56:35;;;;;;;3.25;1.42;;;14.10;99.90;;;;;;12517234;28;20452;-40
2021/10/05 11:02:52;;;;;;;1.90;0.90;;;14.10;99.90;;;;;;12520643;28;20040;-35
2021/10/05 11:08:56;;;;;;;2.15;1.15;;;14.30;99.90;;;;;;12519784;28;20091;-42
2021/10/05 11:14:59;;;;;;;2.10;1.13;;;14.30;99.90;;;;;;12520138;28;20128;-40
2021/10/05 11:21:06;;;;;;;2.50;1.33;;;14.30;99.90;;;;;;12520783;28;20146;-40
2021/10/05 11:27:15;;;;;;;2.10;1.20;;;14.20;99.90;;;;;;12521398;28;20514;-39
2021/10/05 11:33:37;;;;;;;2.10;1.15;;;14.20;99.90;;;;;;12518774;28;20114;-40
2021/10/05 11:39:42;;;;;;;2.00;1.20;;;14.20;99.90;;;;;;12518499;28;20136;-41
2021/10/05 11:45:43;;;;;;;;;;;14.20;99.90;;;;;;12518950;28;20094;-36
2021/10/05 11:52:05;;;;;;;3.05;1.17;;;14.30;99.90;;;;;;12516346;28;21210;-38
2021/10/05 11:58:06;;;;;;;4.63;1.30;;;14.30;99.90;;;;;;12517066;28;20048;-36
2021/10/05 12:04:09;;;;;;;3.40;1.40;;;14.30;99.90;;;;;;12515698;28;20041;-41
2021/10/05 12:10:12;;;;;;;2.15;1.40;;;14.30;99.90;;;;;;12517986;28;20114;-36
2021/10/05 12:16:15;;;;;;;1.88;1.10;;;14.60;99.90;;;;;;12518909;28;20094;-37
2021/10/05 12:22:29;;;;;;;2.03;1.27;;;15.10;99.90;;;;;;12516393;28;20045;-40
2021/10/05 12:28:31;;;;;;;2.47;1.33;;;15.60;99.90;;;;;;12517912;28;20312;-36
2021/10/05 12:34:38;;;;;;;2.63;1.40;;;15.70;99.90;;;;;;12515680;28;20048;-37
2021/10/05 12:40:51;;;;;;;1.30;0.80;;;15.40;99.90;;;;;;12515594;28;20106;-41
2021/10/05 12:46:55;;;;;;;1.87;0.90;;;15.30;99.90;;;;;;12515270;28;20083;-40
2021/10/05 12:53:00;;;;;;;1.23;0.90;;;15.70;99.90;;;;;;12513498;28;20052;-39
2021/10/05 12:59:02;;;;;;;1.75;1.00;;;16.20;99.90;;;;;;12514167;28;20110;-41
2021/10/05 13:05:05;;;;;;;1.52;1.10;;;16.20;99.90;;;;;;12511477;28;20101;-36
2021/10/05 13:11:07;;;;;;;1.70;0.90;;;16.30;99.90;;;;;;12505879;28;20057;-42
2021/10/05 13:17:09;;;;;;;2.72;0.90;;;16.30;99.90;;;;;;12464702;28;20498;-40
2021/10/05 13:23:11;;;;;;;2.60;1.10;;;16.50;99.90;;;;;;12466197;28;20053;-37
2021/10/05 13:29:13;;;;;;;2.05;0.82;;;16.30;99.90;;;;;;12464949;28;20042;-41
2021/10/05 13:35:15;;;;;;;2.95;0.90;;;16.70;99.90;;;;;;12509551;28;20725;-36
2021/10/05 13:41:18;;;;;;;1.92;0.90;;;16.70;99.90;;;;;;12506759;28;20053;-39
2021/10/05 13:47:20;;;;;;;2.83;1.20;;;16.60;99.90;;;;;;12509454;28;20490;-37
2021/10/05 13:53:22;;;;;;;2.30;0.90;;;16.80;99.90;;;;;;12487457;28;20426;-36
2021/10/05 13:59:24;;;;;;;1.23;0.85;;;16.80;99.90;;;;;;12465700;28;20183;-40
2021/10/05 14:05:26;;;;;;;2.67;1.15;;;16.80;99.90;;;;;;12464592;28;20061;-36
2021/10/05 14:11:28;;;;;;;1.58;1.10;;;16.70;99.90;;;;;;12463108;28;20085;-41
2021/10/05 14:17:30;;;;;;;2.20;1.00;;;16.50;99.90;;;;;;12466948;28;20087;-40
2021/10/05 14:23:32;;;;;;;3.78;1.15;;;16.40;99.90;;;;;;12465393;28;20053;-39
2021/10/05 14:29:34;;;;;;;1.88;1.27;;;16.20;99.90;;;;;;12464544;28;20041;-42
2021/10/05 14:35:40;;;;;;;2.38;1.30;;;16.10;99.90;;;;;;12509523;28;20049;-40
2021/10/05 14:41:42;;;;;;;2.85;1.33;;;16.00;99.90;;;;;;12512219;28;20605;-40
2021/10/05 14:47:43;;;;;;;2.00;1.48;;;15.90;99.90;;;;;;12511184;28;20106;-36
2021/10/05 14:53:45;;;;;;;3.17;1.90;;;15.80;99.90;;;;;;12483336;28;20088;-41
2021/10/05 14:59:48;;;;;;;3.50;2.00;;;15.60;99.90;;;;;;12464110;28;20053;-38
2021/10/05 15:05:50;;;;;;;3.70;1.95;;;15.70;99.90;;;;;;12465441;28;20079;-36
2021/10/05 15:11:52;;;;;;;3.40;1.95;;;15.70;99.90;;;;;;12474510;28;20088;-36
2021/10/05 15:17:54;;;;;;;3.10;2.08;;;15.60;99.90;;;;;;12472896;28;20513;-36
2021/10/05 15:23:55;;;;;;;3.55;2.17;;;15.60;99.90;;;;;;12501683;28;20099;-36
2021/10/05 15:29:58;;;;;;;6.80;2.60;;;15.80;99.90;;;;;;12516696;28;20048;-36
2021/10/05 15:36:00;;;;;;;3.65;2.40;;;15.90;99.90;;;;;;12473142;28;20076;-41
2021/10/05 15:42:02;;;;;;;3.35;2.63;;;15.90;99.90;;;;;;12487434;28;20076;-45
2021/10/05 15:48:04;;;;;;;4.00;2.28;;;15.90;99.90;;;;;;12518305;28;20144;-36
2021/10/05 15:54:08;;;;;;;3.60;2.10;;;15.80;99.90;;;;;;12473604;28;20068;-36
2021/10/05 16:00:10;;;;;;;3.20;1.75;;;15.60;99.90;;;;;;12454206;28;20119;-40
2021/10/05 16:06:15;;;;;;;3.42;1.98;;;15.50;99.90;;;;;;12473164;28;20045;-40
2021/10/05 16:12:18;;;;;;;2.55;1.77;;;15.40;99.90;;;;;;12487319;28;20048;-36
2021/10/05 16:18:20;;;;;;;2.72;1.98;;;15.30;99.90;;;;;;12518123;28;20053;-40
2021/10/05 16:24:24;;;;;;;2.30;1.67;;;15.20;99.90;;;;;;12481590;28;20053;-36
2021/10/05 16:30:26;;;;;;;4.50;1.63;;;15.10;99.90;;;;;;12471228;28;20198;-40
2021/10/05 16:36:30;;;;;;;2.55;1.55;;;15.10;99.90;;;;;;12519424;28;20044;-42
2021/10/05 16:42:33;;;;;;;3.72;1.63;;;14.90;99.90;;;;;;12494010;28;20168;-40
2021/10/05 16:48:36;;;;;;;2.33;1.80;;;14.90;99.90;;;;;;12469338;28;20103;-38
2021/10/05 16:54:38;;;;;;;2.42;1.50;;;14.80;99.90;;;;;;12501296;28;20467;-36
2021/10/05 17:00:40;;;;;;;3.55;1.75;;;14.80;99.90;;;;;;12507462;28;20057;-40
2021/10/05 17:06:48;;;;;;;2.72;1.75;;;14.70;99.90;;;;;;12467495;28;20045;-40
2021/10/05 17:12:51;;;;;;;2.70;1.63;;;14.70;99.90;;;;;;12488298;28;20577;-41
2021/10/05 17:18:53;;;;;;;4.30;2.00;;;14.70;99.90;;;;;;12515884;28;20053;-40
2021/10/05 17:24:56;;;;;;;2.45;1.90;;;14.60;99.90;;;;;;12475772;28;20091;-36
2021/10/05 17:30:58;;;;;;;4.90;2.83;;;14.60;99.90;;;;;;12474784;28;20055;-36
2021/10/05 17:37:00;;;;;;;3.55;2.40;;;14.60;99.90;;;;;;12510161;28;20048;-36
2021/10/05 17:43:02;;;;;;;5.43;2.47;;;14.40;99.90;;;;;;12479160;28;20045;-36
2021/10/05 17:49:04;;;;;;;4.95;2.70;;;14.30;99.90;;;;;;12444356;28;20088;-39
2021/10/05 17:55:09;;;;;;;3.88;2.92;;;14.10;99.90;;;;;;12461341;28;20760;-36
2021/10/05 18:01:12;;;;;;;5.95;3.40;;;14.00;99.90;;;;;;12463608;28;20041;-40
2021/10/05 18:07:22;;;;;;;4.20;3.40;;;13.80;99.90;;;;;;12465165;28;20301;-36
2021/10/05 18:13:24;;;;;;;4.55;3.42;;;13.70;99.90;;;;;;12489289;28;20049;-42
2021/10/05 18:19:26;;;;;;;4.85;3.38;;;13.80;99.90;;;;;;12513474;28;20809;-36
2021/10/05 18:25:28;;;;;;;4.50;3.50;;;13.70;99.90;;;;;;12470498;28;20092;-40
2021/10/05 18:31:30;;;;;;;4.45;3.63;;;13.60;99.90;;;;;;12475449;28;20491;-40
2021/10/05 18:37:31;;;;;;;5.65;4.30;;;13.50;99.90;;;;;;12512989;28;20503;-36
2021/10/05 18:43:37;;;;;;;5.72;4.00;;;13.50;99.90;;;;;;12493204;28;20069;-40
2021/10/05 18:49:39;;;;;;;7.57;3.80;;;13.50;99.90;;;;;;12474448;28;20045;-36
2021/10/05 18:55:41;;;;;;;4.80;3.78;;;13.50;99.90;;;;;;12473216;28;20539;-39
2021/10/05 19:01:43;;;;;;;5.78;3.95;;;13.60;99.90;;;;;;12471610;28;20075;-36
2021/10/05 19:07:45;;;;;;;5.97;4.03;;;13.50;99.90;;;;;;12474087;28;20554;-39
2021/10/05 19:13:47;;;;;;;6.82;3.83;;;13.40;99.90;;;;;;12471382;28;20545;-41
2021/10/05 19:19:49;;;;;;;5.50;4.43;;;13.40;99.90;;;;;;12471404;28;20066;-36
2021/10/05 19:25:51;;;;;;;5.88;4.35;;;13.40;99.90;;;;;;12470269;28;20061;-36
2021/10/05 19:31:54;;;;;;;6.47;4.20;;;13.40;99.90;;;;;;12442100;22;20068;-83
2021/10/05 19:37:56;;;;;;;5.75;3.78;;;13.40;99.90;;;;;;12404409;28;20046;-84
2021/10/05 19:43:58;;;;;;;6.05;3.53;;;13.30;99.90;;;;;;12397124;28;20073;-84
2021/10/05 19:50:00;;;;;;;5.00;3.10;;;13.30;99.90;;;;;;12391320;28;20050;-84
2021/10/05 19:56:03;;;;;;;2.92;2.20;;;13.30;99.90;;;;;;12404511;28;20152;-84
2021/10/05 20:02:05;;;;;;;5.88;2.53;;;13.30;99.90;;;;;;12399055;28;20054;-83
2021/10/05 20:08:07;;;;;;;4.45;2.08;;;13.30;99.90;;;;;;12390004;28;20049;-84
2021/10/05 20:14:09;;;;;;;6.00;2.55;;;13.20;99.90;;;;;;12383758;28;20141;-83
2021/10/05 20:20:16;;;;;;;4.32;1.92;;;13.20;99.90;;;;;;12386404;28;20058;-83
2021/10/05 20:26:18;;;;;;;5.55;2.10;;;13.20;99.90;;;;;;12393553;28;20580;-84
2021/10/05 20:32:20;;;;;;;3.95;1.65;;;13.20;99.90;;;;;;12384701;28;20101;-84
2021/10/05 20:38:22;;;;;;;6.78;1.65;;;13.20;99.90;;;;;;12386610;28;20125;-83
2021/10/05 20:44:24;;;;;;;3.75;1.55;;;13.20;99.90;;;;;;12375029;28;20045;-83
2021/10/05 20:50:26;;;;;;;4.40;1.52;;;13.20;99.90;;;;;;12392173;28;20501;-84
2021/10/05 20:56:28;;;;;;;5.35;1.30;;;13.10;99.90;;;;;;12371197;28;20906;-84
2021/10/05 21:02:30;;;;;;;4.90;1.38;;;13.10;99.90;;;;;;12372928;28;20103;-84
2021/10/05 21:08:32;;;;;;;5.38;1.55;;;13.10;99.90;;;;;;12379378;28;20089;-84
2021/10/05 21:14:34;;;;;;;7.93;1.83;;;13.00;99.90;;;;;;12377282;28;20042;-83
2021/10/05 21:20:35;;;;;;;5.15;1.50;;;13.00;99.90;;;;;;12378914;28;20038;-84
2021/10/05 21:26:37;;;;;;;6.15;1.40;;;13.00;99.90;;;;;;12378033;28;20445;-85
2021/10/05 21:32:39;;;;;;;5.13;1.70;;;13.00;99.90;;;;;;12385795;28;20054;-84
2021/10/05 21:38:41;;;;;;;6.63;1.23;;;12.90;99.90;;;;;;12386827;28;20137;-84
2021/10/05 21:44:43;;;;;;;4.68;1.40;;;12.90;99.90;;;;;;12383708;28;20888;-84
2021/10/05 21:50:45;;;;;;;5.35;1.38;;;12.80;99.90;;;;;;12384220;28;20046;-83
2021/10/05 21:56:50;;;;;;;5.13;1.27;;;12.80;99.90;;;;;;12382731;28;20203;-84
2021/10/05 22:02:52;;;;;;;4.30;1.30;;;12.80;99.90;;;;;;12372057;28;20049;-83
2021/10/05 22:08:53;;;;;;;5.47;1.27;;;12.70;99.90;;;;;;12379926;28;20417;-85
2021/10/05 22:14:55;;;;;;;5.82;1.50;;;12.70;99.90;;;;;;12387818;28;20572;-84
2021/10/05 22:20:57;;;;;;;4.57;1.25;;;12.60;99.90;;;;;;12374506;28;20046;-83
2021/10/05 22:27:00;;;;;;;6.53;1.50;;;12.60;99.90;;;;;;12377432;28;20050;-84
2021/10/05 22:33:02;;;;;;;4.80;1.50;;;12.60;99.90;;;;;;12381624;28;20497;-83
2021/10/05 22:39:03;;;;;;;5.88;1.45;;;12.50;99.90;;;;;;12394831;28;20100;-85
2021/10/05 22:45:09;;;;;;;3.92;1.58;;;12.40;99.90;;;;;;12373522;28;20097;-84
2021/10/05 22:51:11;;;;;;;4.68;1.38;;;12.40;99.90;;;;;;12390399;28;20046;-84
2021/10/05 22:57:13;;;;;;;6.50;1.98;;;12.30;99.90;;;;;;12390681;28;20054;-83
2021/10/05 23:03:15;;;;;;;8.35;2.47;;;12.30;99.90;;;;;;12421385;28;20050;-85
2021/10/05 23:09:17;;;;;;;4.50;1.65;;;12.30;99.90;;;;;;12387571;28;20047;-84
2021/10/05 23:15:19;;;;;;;5.28;1.60;;;12.30;99.90;;;;;;12334720;28;20042;-84
2021/10/05 23:21:21;;;;;;;5.55;1.80;;;12.20;99.90;;;;;;12339701;28;20387;-84
2021/10/05 23:27:25;;;;;;;7.28;1.70;;;12.10;99.90;;;;;;12383941;28;20046;-83
2021/10/05 23:33:27;;;;;;;8.45;2.50;;;12.20;99.90;;;;;;12381074;28;20941;-84
2021/10/05 23:39:29;;;;;;;6.68;1.80;;;12.20;99.90;;;;;;12393883;28;20118;-85
2021/10/05 23:45:31;;;;;;;8.50;2.38;;;12.20;99.90;;;;;;12387853;28;20049;-83
2021/10/05 23:51:33;;;;;;;8.25;2.60;;;12.20;99.90;;;;;;12380202;28;20042;-83
2021/10/05 23:57:35;;;;;;;13.65;2.72;;;12.20;99.90;;;;;;12401940;28;20109;-83
